This is the latest recevied weather packets stored in our database for station/object SP8MDH-4. If no packets are shown the sender has not sent any weather packets the latest 1 day(s).
| Time | Temp. | Humidity | Pressure | Rain* | Wind** | Luminosity | Snow |
|---|---|---|---|---|---|---|---|
| 1778103608 | 28.33° C | 24% | 1008.1 hPa | - | - | - | - |
| 1778102108 | 27.78° C | 25% | 1008.2 hPa | - | - | - | - |
| 1778100608 | 28.33° C | 24% | 1007.9 hPa | - | - | - | - |
| 1778099108 | 28.33° C | 25% | 1007.9 hPa | - | - | - | - |
| 1778097608 | 28.33° C | 25% | 1007.9 hPa | - | - | - | - |
| 1778079607 | 28.89° C | 24% | 1006.8 hPa | - | - | - | - |
| 1778078107 | 28.89° C | 24% | 1006.8 hPa | - | - | - | - |
| 1778076607 | 28.89° C | 24% | 1006.6 hPa | - | - | - | - |
| 1778058606 | 26.67° C | 24% | 1007.3 hPa | - | - | - | - |
| 1778057106 | 26.67° C | 24% | 1007.2 hPa | - | - | - | - |
| 1778055606 | 26.67° C | 24% | 1007.1 hPa | - | - | - | - |
| 1778054106 | 26.11° C | 24% | 1007.4 hPa | - | - | - | - |
| 1778052606 | 25.56° C | 24% | 1007.5 hPa | - | - | - | - |
| 1778051106 | 25.56° C | 24% | 1007.6 hPa | - | - | - | - |
| 1778048106 | 25° C | 23% | 1007.6 hPa | - | - | - | - |
| 1778046606 | 25° C | 23% | 1007.7 hPa | - | - | - | - |
| 1778034605 | 25.56° C | 22% | 1008.2 hPa | - | - | - | - |
| 1778033105 | 25° C | 22% | 1008.1 hPa | - | - | - | - |
| 1778031605 | 25° C | 22% | 1008.1 hPa | - | - | - | - |
| 1778030105 | 25.56° C | 22% | 1008.1 hPa | - | - | - | - |
| 1778028605 | 25.56° C | 22% | 1008 hPa | - | - | - | - |
| 1778027105 | 25.56° C | 22% | 1007.9 hPa | - | - | - | - |
* Rain since midnight (hover to see other rain measurements)
** Current wind speed in m/s (hover to see current wind gust speed)